createdAt,value
2024-03-09T00:00:42.008Z,10.80
2024-03-09T00:03:10.022Z,10.70
2024-03-09T00:05:37.861Z,10.70
2024-03-09T00:08:08.501Z,10.70
2024-03-09T00:10:35.705Z,10.60
2024-03-09T00:13:04.206Z,10.70
2024-03-09T00:15:31.743Z,10.70
2024-03-09T00:18:00.079Z,10.60
2024-03-09T00:20:36.454Z,10.50
2024-03-09T00:23:07.579Z,10.40
2024-03-09T00:25:35.619Z,10.40
2024-03-09T00:28:02.699Z,10.40
2024-03-09T00:30:33.086Z,10.30
2024-03-09T00:33:02.451Z,10.30
2024-03-09T00:35:31.731Z,10.40
2024-03-09T00:38:00.689Z,10.30
2024-03-09T00:40:31.818Z,10.10
2024-03-09T00:43:03.287Z,10.10
2024-03-09T00:45:33.075Z,10.20
2024-03-09T00:48:00.500Z,10.30
2024-03-09T00:50:28.517Z,10.30
2024-03-09T00:52:56.313Z,10.20
2024-03-09T00:55:24.341Z,10.20
2024-03-09T00:57:52.209Z,10.20
2024-03-09T01:00:20.822Z,10.20
2024-03-09T01:02:50.582Z,10.10
2024-03-09T01:05:28.235Z,10.20
2024-03-09T01:07:55.810Z,10.20
2024-03-09T01:10:23.011Z,10.20
2024-03-09T01:12:50.399Z,10.00
2024-03-09T01:15:18.152Z,10.00
2024-03-09T01:17:45.528Z,10.00
2024-03-09T01:20:14.645Z,10.10
2024-03-09T01:22:45.426Z,10.20
2024-03-09T01:25:13.882Z,10.30
2024-03-09T01:27:41.758Z,10.20
2024-03-09T01:30:11.170Z,10.20
2024-03-09T01:32:41.830Z,10.40
2024-03-09T01:35:10.460Z,10.30
2024-03-09T01:37:38.080Z,10.20
2024-03-09T01:40:06.028Z,10.10
2024-03-09T01:42:34.210Z,10.10
2024-03-09T01:45:05.430Z,10.00
2024-03-09T01:47:32.972Z,10.10
2024-03-09T01:50:00.153Z,10.00
2024-03-09T01:52:33.634Z,10.10
2024-03-09T01:55:05.778Z,10.10
2024-03-09T01:57:34.187Z,10.10
2024-03-09T02:00:02.672Z,10.10
2024-03-09T02:02:31.960Z,10.10
2024-03-09T02:05:01.423Z,10.10
2024-03-09T02:07:28.519Z,10.10
2024-03-09T02:09:56.206Z,10.10
2024-03-09T02:12:24.266Z,10.10
2024-03-09T02:14:51.253Z,10.20
2024-03-09T02:17:18.251Z,10.00
2024-03-09T02:19:45.239Z,10.10
2024-03-09T02:22:17.506Z,10.10
2024-03-09T02:24:56.331Z,10.10
2024-03-09T02:27:26.916Z,10.20
2024-03-09T02:29:54.176Z,10.10
2024-03-09T02:32:23.368Z,10.10
2024-03-09T02:34:51.056Z,10.00
2024-03-09T02:37:21.628Z,10.00
2024-03-09T02:39:48.825Z,9.90
2024-03-09T02:42:16.736Z,10.00
2024-03-09T02:44:43.713Z,10.10
2024-03-09T02:47:14.163Z,10.10
2024-03-09T02:49:41.257Z,10.00
2024-03-09T02:52:10.456Z,9.80
2024-03-09T02:54:37.911Z,9.90
2024-03-09T02:57:08.268Z,10.00
2024-03-09T02:59:36.553Z,9.90
2024-03-09T03:02:15.899Z,10.00
2024-03-09T03:04:43.435Z,10.00
2024-03-09T03:07:10.563Z,9.90
2024-03-09T03:09:37.702Z,9.80
2024-03-09T03:12:09.348Z,9.80
2024-03-09T03:14:36.458Z,9.90
2024-03-09T03:17:03.522Z,9.90
2024-03-09T03:19:30.614Z,9.90
2024-03-09T03:21:57.875Z,10.00
2024-03-09T03:24:26.292Z,9.90
2024-03-09T03:26:53.283Z,9.90
2024-03-09T03:29:21.620Z,9.70
2024-03-09T03:31:49.201Z,9.70
2024-03-09T03:34:26.040Z,9.60
2024-03-09T03:36:55.758Z,9.60
2024-03-09T03:39:22.625Z,9.60
2024-03-09T03:41:53.520Z,9.70
2024-03-09T03:44:20.549Z,9.70
2024-03-09T03:46:48.507Z,9.70
2024-03-09T03:49:15.766Z,9.70
2024-03-09T03:51:42.830Z,9.70
2024-03-09T03:54:11.470Z,9.60
2024-03-09T03:56:38.746Z,9.60
2024-03-09T03:59:05.810Z,9.50
2024-03-09T04:01:33.364Z,9.50
2024-03-09T04:04:00.405Z,9.40
2024-03-09T04:06:27.436Z,9.40
2024-03-09T04:08:54.495Z,9.30
2024-03-09T04:11:21.523Z,9.40
2024-03-09T04:13:50.624Z,9.30
2024-03-09T04:16:17.853Z,9.40
2024-03-09T04:18:45.736Z,9.40
2024-03-09T04:21:14.193Z,9.40
2024-03-09T04:23:41.394Z,9.50
2024-03-09T04:26:08.312Z,9.50
2024-03-09T04:28:35.215Z,9.30
2024-03-09T04:31:02.269Z,9.30
2024-03-09T04:33:29.807Z,9.40
2024-03-09T04:35:58.583Z,9.30
2024-03-09T04:38:27.288Z,9.30
2024-03-09T04:40:54.309Z,9.20
2024-03-09T04:43:21.224Z,9.30
2024-03-09T04:45:52.027Z,9.30
2024-03-09T04:48:19.153Z,9.30
2024-03-09T04:50:49.061Z,9.20
2024-03-09T04:53:18.340Z,9.20
2024-03-09T04:55:50.716Z,9.20
2024-03-09T04:58:23.020Z,9.20
2024-03-09T05:00:50.301Z,9.20
2024-03-09T05:03:19.098Z,9.10
2024-03-09T05:05:46.324Z,9.00
2024-03-09T05:08:13.791Z,9.00
2024-03-09T05:10:41.180Z,8.90
2024-03-09T05:13:09.456Z,8.90
2024-03-09T05:15:37.486Z,8.90
2024-03-09T05:18:09.672Z,8.90
2024-03-09T05:20:38.048Z,8.90
2024-03-09T05:23:11.563Z,9.00
2024-03-09T05:25:41.838Z,8.90
2024-03-09T05:28:14.000Z,8.90
2024-03-09T05:30:43.166Z,8.80
2024-03-09T05:33:10.720Z,8.80
2024-03-09T05:35:37.978Z,8.80
2024-03-09T05:38:06.573Z,8.80
2024-03-09T05:40:36.366Z,9.00
2024-03-09T05:43:13.434Z,8.90
2024-03-09T05:45:42.527Z,8.80
2024-03-09T05:48:10.324Z,8.90
2024-03-09T05:50:39.642Z,8.90
2024-03-09T05:53:07.675Z,8.90
2024-03-09T05:55:35.146Z,9.00
2024-03-09T05:58:02.143Z,9.00
2024-03-09T06:00:31.597Z,8.90
2024-03-09T06:03:05.048Z,8.80
2024-03-09T06:05:33.058Z,8.90
2024-03-09T06:08:03.865Z,8.80
2024-03-09T06:10:32.586Z,8.90
2024-03-09T06:13:01.123Z,8.80
2024-03-09T06:15:29.307Z,8.80
2024-03-09T06:18:00.511Z,8.80
2024-03-09T06:20:29.041Z,8.80
2024-03-09T06:22:57.799Z,8.70
2024-03-09T06:25:27.478Z,8.70
2024-03-09T06:27:55.814Z,8.70
2024-03-09T06:30:29.223Z,8.70
2024-03-09T06:33:03.613Z,8.60
2024-03-09T06:35:32.287Z,8.70
2024-03-09T06:38:06.732Z,8.70
2024-03-09T06:40:38.137Z,8.80
2024-03-09T06:43:10.502Z,9.00
2024-03-09T06:45:41.902Z,9.00
2024-03-09T06:48:09.645Z,9.00
2024-03-09T06:50:43.101Z,9.00
2024-03-09T06:53:10.273Z,8.90
2024-03-09T06:55:37.888Z,8.90
2024-03-09T06:58:05.718Z,9.00
2024-03-09T07:00:38.804Z,9.10
2024-03-09T07:03:07.235Z,9.10
2024-03-09T07:05:39.389Z,9.20
2024-03-09T07:08:11.242Z,9.30
2024-03-09T07:10:38.761Z,9.20
2024-03-09T07:13:06.424Z,9.30
2024-03-09T07:15:34.166Z,9.20
2024-03-09T07:18:02.177Z,9.30
2024-03-09T07:20:30.319Z,9.30
2024-03-09T07:22:58.151Z,9.30
2024-03-09T07:25:28.377Z,9.20
2024-03-09T07:27:57.840Z,9.20
2024-03-09T07:30:26.067Z,9.20
2024-03-09T07:32:56.121Z,9.30
2024-03-09T07:35:29.735Z,9.50
2024-03-09T07:38:01.531Z,9.60
2024-03-09T07:40:38.453Z,9.70
2024-03-09T07:43:07.051Z,9.70
2024-03-09T07:45:37.201Z,9.90
2024-03-09T07:48:05.013Z,10.00
2024-03-09T07:50:34.390Z,10.00
2024-03-09T07:53:02.067Z,10.10
2024-03-09T07:55:30.293Z,10.20
2024-03-09T07:58:13.238Z,10.30
2024-03-09T08:00:48.801Z,10.40
2024-03-09T08:03:15.904Z,10.50
2024-03-09T08:05:43.554Z,10.70
2024-03-09T08:08:13.539Z,11.00
2024-03-09T08:10:43.082Z,11.00
2024-03-09T08:13:14.329Z,11.10
2024-03-09T08:15:41.830Z,11.20
2024-03-09T08:18:09.100Z,11.30
2024-03-09T08:20:36.452Z,11.40
2024-03-09T08:25:45.032Z,11.70
2024-03-09T08:28:14.222Z,11.50
2024-03-09T08:30:42.425Z,11.90
2024-03-09T08:33:10.657Z,12.10
2024-03-09T08:35:38.058Z,12.20
2024-03-09T08:38:06.164Z,12.30
2024-03-09T08:40:33.452Z,12.30
2024-03-09T08:43:00.821Z,12.40
2024-03-09T08:45:30.375Z,12.40
2024-03-09T08:47:58.481Z,12.60
2024-03-09T08:50:26.883Z,12.80
2024-03-09T08:52:54.409Z,13.10
2024-03-09T08:55:21.745Z,13.10
2024-03-09T08:57:50.953Z,13.20
2024-03-09T09:00:26.694Z,13.20
2024-03-09T09:02:59.360Z,13.50
2024-03-09T09:05:29.315Z,13.60
2024-03-09T09:07:57.483Z,13.90
2024-03-09T09:10:27.480Z,14.20
2024-03-09T09:12:56.291Z,14.10
2024-03-09T09:15:26.464Z,14.20
2024-03-09T09:17:55.460Z,14.30
2024-03-09T09:20:22.642Z,14.10
2024-03-09T09:22:50.706Z,14.10
2024-03-09T09:25:27.435Z,14.60
2024-03-09T09:27:57.816Z,14.60
2024-03-09T09:30:25.539Z,14.70
2024-03-09T09:32:52.735Z,14.90
2024-03-09T09:35:22.109Z,15.10
2024-03-09T09:37:49.492Z,15.30
2024-03-09T09:40:21.580Z,15.50
2024-03-09T09:42:52.451Z,15.60
2024-03-09T09:45:23.995Z,15.50
2024-03-09T09:47:51.326Z,15.50
2024-03-09T09:50:21.367Z,15.40
2024-03-09T09:52:50.496Z,15.70
2024-03-09T09:55:21.120Z,15.50
2024-03-09T09:57:48.490Z,15.50
2024-03-09T10:00:16.264Z,15.70
2024-03-09T10:02:43.575Z,15.80
2024-03-09T10:05:17.944Z,16.10
2024-03-09T10:08:02.526Z,16.00
2024-03-09T10:10:32.574Z,16.20
2024-03-09T10:13:13.777Z,16.40
2024-03-09T10:15:46.365Z,16.20
2024-03-09T10:18:14.656Z,16.30
2024-03-09T10:20:41.850Z,16.60
2024-03-09T10:23:13.825Z,16.60
2024-03-09T10:25:42.077Z,16.50
2024-03-09T10:28:11.586Z,16.60
2024-03-09T10:30:40.303Z,16.60
2024-03-09T10:33:11.961Z,16.80
2024-03-09T10:35:42.840Z,16.80
2024-03-09T10:38:11.122Z,17.10
2024-03-09T10:40:38.480Z,17.00
2024-03-09T10:43:09.905Z,17.00
2024-03-09T10:45:39.362Z,16.90
2024-03-09T10:48:11.206Z,17.10
2024-03-09T10:50:49.528Z,17.10
2024-03-09T10:53:48.833Z,17.70
2024-03-09T10:56:25.578Z,17.80
2024-03-09T10:59:00.494Z,17.80
2024-03-09T11:01:28.609Z,17.60
2024-03-09T11:03:56.328Z,17.90
2024-03-09T11:06:24.273Z,18.10
2024-03-09T11:08:55.073Z,18.20
2024-03-09T11:11:25.185Z,17.60
2024-03-09T11:13:52.848Z,17.40
2024-03-09T11:16:22.982Z,17.20
2024-03-09T11:19:02.346Z,17.10
2024-03-09T11:21:37.239Z,16.90
2024-03-09T11:24:13.357Z,17.00
2024-03-09T11:26:52.390Z,17.30
2024-03-09T11:29:22.284Z,17.50
2024-03-09T11:31:56.325Z,17.80
2024-03-09T11:34:23.566Z,17.70
2024-03-09T11:36:55.427Z,18.20
2024-03-09T11:39:29.683Z,18.50
2024-03-09T11:42:00.050Z,18.60
2024-03-09T11:44:35.260Z,18.60
2024-03-09T11:47:05.070Z,18.70
2024-03-09T11:49:34.945Z,18.80
2024-03-09T11:52:04.445Z,18.60
2024-03-09T11:54:32.348Z,18.60
2024-03-09T11:57:02.164Z,18.40
2024-03-09T11:59:29.084Z,18.50
2024-03-09T12:02:14.381Z,18.40
2024-03-09T12:04:43.344Z,18.40
2024-03-09T12:07:11.147Z,18.40
2024-03-09T12:09:46.119Z,18.30
2024-03-09T12:12:15.046Z,18.10
2024-03-09T12:14:45.917Z,18.10
2024-03-09T12:17:13.668Z,18.00
2024-03-09T12:19:42.185Z,17.80
2024-03-09T12:22:10.777Z,17.60
2024-03-09T12:24:37.942Z,17.50
2024-03-09T12:27:05.972Z,17.30
2024-03-09T12:29:34.362Z,16.90
2024-03-09T12:32:03.237Z,16.70
2024-03-09T12:34:31.044Z,16.80
2024-03-09T12:36:59.173Z,16.60
2024-03-09T12:39:29.281Z,16.70
2024-03-09T12:41:57.844Z,16.60
2024-03-09T12:44:26.265Z,16.90
2024-03-09T12:46:56.012Z,16.90
2024-03-09T12:49:23.484Z,16.90
2024-03-09T12:51:52.591Z,16.90
2024-03-09T12:54:20.632Z,16.80
2024-03-09T12:56:50.418Z,16.80
2024-03-09T12:59:28.484Z,17.00
2024-03-09T13:01:56.669Z,16.90
2024-03-09T13:04:28.948Z,16.80
2024-03-09T13:06:58.096Z,16.80
2024-03-09T13:09:33.167Z,16.90
2024-03-09T13:12:02.138Z,17.10
2024-03-09T13:14:29.472Z,17.00
2024-03-09T13:16:56.563Z,16.80
2024-03-09T13:19:23.587Z,16.90
2024-03-09T13:21:53.431Z,16.70
2024-03-09T13:24:24.203Z,16.70
2024-03-09T13:26:53.022Z,16.70
2024-03-09T13:29:22.422Z,16.50
2024-03-09T13:31:51.342Z,16.70
2024-03-09T13:34:18.749Z,16.70
2024-03-09T13:36:47.338Z,16.60
2024-03-09T13:39:17.916Z,16.40
2024-03-09T13:41:48.073Z,16.30
2024-03-09T13:44:15.456Z,16.30
2024-03-09T13:46:46.107Z,16.40
2024-03-09T13:49:14.909Z,16.40
2024-03-09T13:51:46.143Z,16.30
2024-03-09T13:54:18.368Z,16.10
2024-03-09T13:56:46.312Z,16.00
2024-03-09T13:59:16.948Z,16.20
2024-03-09T14:01:45.803Z,16.10
2024-03-09T14:04:15.553Z,16.20
2024-03-09T14:09:14.682Z,16.10
2024-03-09T14:11:42.093Z,16.10
2024-03-09T14:14:10.410Z,16.20
2024-03-09T14:16:39.758Z,16.20
2024-03-09T14:19:07.381Z,16.20
2024-03-09T14:21:34.440Z,16.00
2024-03-09T14:24:04.701Z,16.00
2024-03-09T14:26:31.894Z,16.10
2024-03-09T14:29:00.222Z,16.20
2024-03-09T14:31:37.092Z,16.10
2024-03-09T14:34:04.422Z,16.00
2024-03-09T14:36:34.593Z,16.10
2024-03-09T14:39:01.845Z,16.20
2024-03-09T14:41:28.916Z,16.10
2024-03-09T14:43:57.749Z,16.10
2024-03-09T14:46:30.036Z,16.30
2024-03-09T14:48:57.018Z,16.10
2024-03-09T14:51:26.271Z,16.10
2024-03-09T14:53:54.249Z,16.00
2024-03-09T14:56:23.369Z,16.00
2024-03-09T14:58:50.652Z,16.00
2024-03-09T15:01:38.131Z,15.90
2024-03-09T15:04:09.589Z,15.90
2024-03-09T15:06:41.781Z,15.90
2024-03-09T15:09:09.511Z,15.70
2024-03-09T15:11:37.717Z,15.70
2024-03-09T15:14:06.167Z,15.60
2024-03-09T15:16:33.347Z,15.70
2024-03-09T15:19:00.337Z,15.70
2024-03-09T15:21:28.049Z,15.70
2024-03-09T15:23:57.282Z,15.70
2024-03-09T15:26:29.864Z,15.70
2024-03-09T15:28:59.785Z,15.70
2024-03-09T15:31:36.794Z,15.70
2024-03-09T15:34:16.664Z,15.70
2024-03-09T15:36:45.268Z,15.70
2024-03-09T15:39:15.062Z,15.90
2024-03-09T15:41:44.325Z,16.00
2024-03-09T15:44:11.647Z,16.00
2024-03-09T15:46:38.819Z,15.90
2024-03-09T15:49:07.634Z,15.90
2024-03-09T15:51:37.339Z,16.00
2024-03-09T15:54:05.075Z,16.00
2024-03-09T15:56:34.654Z,16.00
2024-03-09T15:59:05.699Z,16.00
2024-03-09T16:01:36.720Z,16.00
2024-03-09T16:04:11.204Z,15.90
2024-03-09T16:06:40.655Z,16.00
2024-03-09T16:09:13.572Z,16.00
2024-03-09T16:11:42.309Z,16.00
2024-03-09T16:14:13.503Z,15.80
2024-03-09T16:16:41.538Z,15.70
2024-03-09T16:19:08.576Z,15.80
2024-03-09T16:21:38.593Z,15.90
2024-03-09T16:24:08.715Z,15.80
2024-03-09T16:26:36.269Z,15.70
2024-03-09T16:29:03.864Z,15.60
2024-03-09T16:31:36.880Z,15.50
2024-03-09T16:34:07.988Z,15.50
2024-03-09T16:36:35.525Z,15.50
2024-03-09T16:39:10.937Z,15.50
2024-03-09T16:41:39.538Z,15.40
2024-03-09T16:44:06.766Z,15.50
2024-03-09T16:46:33.798Z,15.50
2024-03-09T16:49:00.815Z,15.30
2024-03-09T16:51:28.091Z,15.30
2024-03-09T16:53:55.337Z,15.20
2024-03-09T16:56:22.666Z,15.10
2024-03-09T16:58:50.241Z,15.00
2024-03-09T17:01:17.381Z,15.10
2024-03-09T17:03:44.651Z,15.10
2024-03-09T17:06:17.228Z,15.00
2024-03-09T17:08:45.722Z,15.10
2024-03-09T17:11:15.127Z,14.90
2024-03-09T17:13:43.541Z,14.90
2024-03-09T17:16:12.256Z,14.80
2024-03-09T17:18:40.143Z,15.00
2024-03-09T17:21:07.197Z,14.90
2024-03-09T17:23:34.242Z,15.00
2024-03-09T17:26:01.931Z,14.80
2024-03-09T17:28:28.938Z,14.90
2024-03-09T17:30:57.777Z,14.80
2024-03-09T17:33:27.269Z,14.70
2024-03-09T17:35:54.363Z,14.60
2024-03-09T17:38:22.592Z,14.70
2024-03-09T17:40:50.011Z,14.60
2024-03-09T17:43:17.416Z,14.50
2024-03-09T17:45:46.725Z,14.60
2024-03-09T17:48:14.602Z,14.60
2024-03-09T17:50:43.106Z,14.50
2024-03-09T17:53:10.887Z,14.40
2024-03-09T17:55:38.094Z,14.40
2024-03-09T17:58:09.852Z,14.40
2024-03-09T18:00:38.915Z,14.30
2024-03-09T18:03:08.967Z,14.40
2024-03-09T18:05:39.354Z,14.30
2024-03-09T18:08:12.124Z,14.20
2024-03-09T18:10:43.917Z,14.20
2024-03-09T18:13:13.896Z,14.20
2024-03-09T18:15:45.436Z,14.10
2024-03-09T18:18:14.129Z,14.20
2024-03-09T18:20:43.491Z,14.10
2024-03-09T18:23:11.842Z,14.10
2024-03-09T18:25:39.446Z,14.00
2024-03-09T18:28:09.690Z,14.10
2024-03-09T18:30:37.585Z,14.10
2024-03-09T18:33:10.042Z,14.00
2024-03-09T18:35:38.875Z,13.90
2024-03-09T18:38:07.475Z,13.90
2024-03-09T18:40:34.920Z,13.90
2024-03-09T18:43:03.723Z,13.90
2024-03-09T18:45:33.971Z,14.00
2024-03-09T18:48:01.978Z,13.80
2024-03-09T18:50:29.174Z,13.80
2024-03-09T18:53:01.297Z,13.80
2024-03-09T18:55:30.694Z,13.90
2024-03-09T18:57:58.649Z,13.70
2024-03-09T19:00:31.795Z,13.70
2024-03-09T19:03:00.936Z,13.70
2024-03-09T19:05:28.946Z,13.80
2024-03-09T19:08:00.848Z,13.70
2024-03-09T19:10:29.139Z,13.60
2024-03-09T19:12:56.402Z,13.60
2024-03-09T19:15:26.838Z,13.70
2024-03-09T19:17:54.967Z,13.70
2024-03-09T19:20:28.243Z,13.60
2024-03-09T19:23:01.578Z,13.50
2024-03-09T19:25:28.672Z,13.60
2024-03-09T19:27:57.253Z,13.70
2024-03-09T19:30:27.391Z,13.70
2024-03-09T19:32:57.771Z,13.70
2024-03-09T19:35:27.011Z,13.50
2024-03-09T19:37:59.148Z,13.60
2024-03-09T19:40:28.294Z,13.60
2024-03-09T19:42:56.407Z,13.70
2024-03-09T19:45:25.095Z,13.80
2024-03-09T19:47:52.961Z,13.90
2024-03-09T19:50:24.220Z,13.90
2024-03-09T19:52:52.558Z,13.80
2024-03-09T19:55:21.116Z,13.80
2024-03-09T19:57:49.391Z,13.70
2024-03-09T20:00:23.915Z,13.70
2024-03-09T20:02:53.838Z,13.50
2024-03-09T20:05:24.644Z,13.60
2024-03-09T20:07:55.970Z,13.50
2024-03-09T20:10:24.430Z,13.50
2024-03-09T20:12:55.420Z,13.60
2024-03-09T20:15:23.811Z,13.50
2024-03-09T20:17:53.542Z,13.60
2024-03-09T20:20:21.449Z,13.60
2024-03-09T20:22:48.720Z,13.60
2024-03-09T20:25:18.297Z,13.70
2024-03-09T20:27:45.588Z,13.70
2024-03-09T20:30:16.072Z,13.70
2024-03-09T20:32:43.498Z,13.80
2024-03-09T20:35:16.618Z,13.70
2024-03-09T20:37:46.003Z,13.70
2024-03-09T20:40:17.469Z,13.70
2024-03-09T20:42:52.603Z,13.60
2024-03-09T20:45:22.222Z,13.60
2024-03-09T20:47:50.197Z,13.70
2024-03-09T20:50:19.823Z,13.50
2024-03-09T20:52:54.098Z,13.50
2024-03-09T20:55:21.864Z,13.50
2024-03-09T20:57:49.123Z,13.50
2024-03-09T21:00:23.346Z,13.50
2024-03-09T21:02:50.994Z,13.40
2024-03-09T21:05:18.134Z,13.20
2024-03-09T21:07:45.333Z,13.30
2024-03-09T21:10:15.294Z,13.10
2024-03-09T21:12:42.737Z,13.00
2024-03-09T21:15:10.261Z,13.00
2024-03-09T21:17:37.742Z,13.10
2024-03-09T21:20:12.763Z,13.00
2024-03-09T21:22:40.186Z,13.00
2024-03-09T21:25:11.612Z,13.00
2024-03-09T21:27:44.346Z,13.00
2024-03-09T21:30:14.230Z,13.00
2024-03-09T21:32:48.761Z,13.10
2024-03-09T21:35:17.048Z,13.10
2024-03-09T21:37:45.569Z,13.10
2024-03-09T21:40:14.615Z,13.00
2024-03-09T21:42:44.258Z,13.00
2024-03-09T21:45:12.700Z,13.10
2024-03-09T21:47:40.516Z,13.20
2024-03-09T21:50:08.605Z,13.20
2024-03-09T21:52:35.875Z,13.10
2024-03-09T21:55:03.110Z,13.10
2024-03-09T21:57:30.205Z,13.10
2024-03-09T21:59:57.161Z,13.10
2024-03-09T22:02:25.315Z,13.20
2024-03-09T22:04:52.509Z,13.20
2024-03-09T22:07:19.400Z,13.20
2024-03-09T22:09:46.352Z,13.10
2024-03-09T22:12:13.346Z,13.20
2024-03-09T22:14:40.645Z,13.20
2024-03-09T22:17:07.715Z,13.40
2024-03-09T22:19:34.720Z,13.30
2024-03-09T22:22:02.127Z,13.10
2024-03-09T22:24:29.372Z,13.10
2024-03-09T22:26:56.871Z,13.00
2024-03-09T22:29:24.508Z,13.00
2024-03-09T22:31:52.249Z,13.00
2024-03-09T22:34:19.818Z,13.00
2024-03-09T22:36:47.197Z,12.90
2024-03-09T22:39:17.382Z,12.90
2024-03-09T22:41:47.667Z,12.80
2024-03-09T22:44:15.692Z,12.80
2024-03-09T22:46:42.703Z,12.70
2024-03-09T22:49:10.345Z,12.70
2024-03-09T22:51:37.669Z,12.80
2024-03-09T22:54:04.826Z,12.70
2024-03-09T22:56:32.564Z,12.70
2024-03-09T22:58:59.585Z,12.70
2024-03-09T23:01:26.943Z,12.80
2024-03-09T23:03:54.795Z,12.90
2024-03-09T23:06:22.024Z,12.80
2024-03-09T23:08:49.458Z,12.80
2024-03-09T23:11:19.260Z,12.80
2024-03-09T23:13:48.112Z,12.80
2024-03-09T23:16:15.665Z,12.80
2024-03-09T23:18:43.463Z,12.80
2024-03-09T23:21:11.325Z,12.80
2024-03-09T23:23:38.376Z,12.80
2024-03-09T23:26:05.712Z,12.80
2024-03-09T23:28:32.765Z,12.80
2024-03-09T23:31:02.591Z,12.80
2024-03-09T23:33:29.428Z,12.80
2024-03-09T23:35:57.287Z,12.80
2024-03-09T23:38:24.309Z,12.90
2024-03-09T23:40:51.458Z,13.00
2024-03-09T23:43:19.651Z,13.00
2024-03-09T23:45:47.216Z,12.90
2024-03-09T23:48:17.312Z,12.90
2024-03-09T23:50:44.609Z,12.80
2024-03-09T23:53:13.259Z,12.80
2024-03-09T23:55:41.429Z,12.70
2024-03-09T23:58:08.692Z,12.70
